createdAt,value
2023-01-10T00:07:22.167Z,80.64
2023-01-10T00:17:22.404Z,81.74
2023-01-10T00:27:22.649Z,81.64
2023-01-10T00:37:22.990Z,79.88
2023-01-10T00:47:23.015Z,77.15
2023-01-10T00:57:23.361Z,76.29
2023-01-10T01:07:23.409Z,75.57
2023-01-10T01:17:23.725Z,74.63
2023-01-10T01:27:23.790Z,74.84
2023-01-10T01:37:24.103Z,75.78
2023-01-10T01:47:24.126Z,77.47
2023-01-10T01:57:24.561Z,75.15
2023-01-10T02:07:24.613Z,75.91
2023-01-10T02:17:25.885Z,75.78
2023-01-10T02:27:25.006Z,81.54
2023-01-10T02:37:27.155Z,83.40
2023-01-10T02:47:25.194Z,82.19
2023-01-10T02:57:25.479Z,82.98
2023-01-10T03:07:25.510Z,82.92
2023-01-10T03:17:25.845Z,81.02
2023-01-10T03:27:25.897Z,82.60
2023-01-10T03:37:26.221Z,82.92
2023-01-10T03:47:26.270Z,82.81
2023-01-10T03:57:26.588Z,82.37
2023-01-10T04:07:26.629Z,84.23
2023-01-10T04:17:26.959Z,83.83
2023-01-10T04:27:27.000Z,84.03
2023-01-10T04:37:27.318Z,84.23
2023-01-10T04:47:27.345Z,84.55
2023-01-10T04:57:27.694Z,81.96
2023-01-10T05:07:27.768Z,76.95
2023-01-10T05:17:30.222Z,76.71
2023-01-10T05:27:28.322Z,76.40
2023-01-10T05:37:28.437Z,76.81
2023-01-10T05:47:28.481Z,77.53
2023-01-10T05:57:28.812Z,73.91
2023-01-10T06:07:28.901Z,74.12
2023-01-10T06:17:29.004Z,74.22
2023-01-10T06:27:29.238Z,73.60
2023-01-10T06:37:29.565Z,72.85
2023-01-10T06:47:29.601Z,73.25
2023-01-10T06:57:30.847Z,75.57
2023-01-10T07:07:30.213Z,73.50
2023-01-10T07:17:30.298Z,74.63
2023-01-10T07:27:30.549Z,76.19
2023-01-10T07:37:30.861Z,75.26
2023-01-10T07:47:30.900Z,75.05
2023-01-10T07:57:31.245Z,74.77
2023-01-10T08:07:31.292Z,74.02
2023-01-10T08:17:31.605Z,73.29
2023-01-10T08:27:31.636Z,73.60
2023-01-10T08:37:31.876Z,74.29
2023-01-10T08:47:34.010Z,74.81
2023-01-10T08:57:34.299Z,71.39
2023-01-10T09:07:32.548Z,73.74
2023-01-10T09:17:32.818Z,70.84
2023-01-10T09:27:32.859Z,70.92
2023-01-10T09:37:33.192Z,72.33
2023-01-10T09:47:33.221Z,73.16
2023-01-10T09:57:33.574Z,68.09
2023-01-10T10:07:33.615Z,70.64
2023-01-10T10:17:33.943Z,71.33
2023-01-10T10:27:33.980Z,72.02
2023-01-10T10:37:34.304Z,68.11
2023-01-10T10:47:34.335Z,68.62
2023-01-10T10:57:34.668Z,68.21
2023-01-10T11:07:34.798Z,66.66
2023-01-10T11:17:35.046Z,66.89
2023-01-10T11:27:35.280Z,65.42
2023-01-10T11:37:35.644Z,67.03
2023-01-10T11:47:41.672Z,66.31
2023-01-10T11:57:36.771Z,61.71
2023-01-10T12:07:36.065Z,60.17
2023-01-10T12:17:36.089Z,57.64
2023-01-10T12:27:36.437Z,54.33
2023-01-10T12:37:36.485Z,53.05
2023-01-10T12:47:38.828Z,48.40
2023-01-10T12:57:36.993Z,47.23
2023-01-10T13:07:37.081Z,49.63
2023-01-10T13:17:37.225Z,47.15
2023-01-10T13:27:37.561Z,45.20
2023-01-10T13:37:37.609Z,43.24
2023-01-10T13:47:37.919Z,45.59
2023-01-10T13:57:37.947Z,47.50
2023-01-10T14:07:38.182Z,49.10
2023-01-10T14:17:38.414Z,49.89
2023-01-10T14:27:38.676Z,52.73
2023-01-10T14:37:38.905Z,56.70
2023-01-10T14:47:40.159Z,57.31
2023-01-10T14:57:39.394Z,59.74
2023-01-10T15:07:39.714Z,60.41
2023-01-10T15:17:39.751Z,62.99
2023-01-10T15:27:40.184Z,64.87
2023-01-10T15:37:40.226Z,66.89
2023-01-10T15:47:40.568Z,67.24
2023-01-10T15:57:40.632Z,67.40
2023-01-10T16:07:40.914Z,68.05
2023-01-10T16:17:40.953Z,70.60
2023-01-10T16:27:41.285Z,70.94
2023-01-10T16:37:41.328Z,71.98
2023-01-10T16:47:46.788Z,72.11
2023-01-10T16:57:41.805Z,71.73
2023-01-10T17:07:42.148Z,71.42
2023-01-10T17:17:42.214Z,70.49
2023-01-10T17:27:45.590Z,72.94
2023-01-10T17:37:42.632Z,68.52
2023-01-10T17:47:42.863Z,68.34
2023-01-10T17:57:43.103Z,68.55
2023-01-10T18:07:43.451Z,68.07
2023-01-10T18:17:43.516Z,66.78
2023-01-10T18:27:44.025Z,63.13
2023-01-10T18:37:43.907Z,62.61
2023-01-10T18:47:44.200Z,62.61
2023-01-10T18:57:44.242Z,62.74
2023-01-10T19:07:44.632Z,64.54
2023-01-10T19:17:44.696Z,62.95
2023-01-10T19:27:46.250Z,64.33
2023-01-10T19:37:45.413Z,63.19
2023-01-10T19:47:45.404Z,62.33
2023-01-10T19:57:45.467Z,63.50
2023-01-10T20:07:46.577Z,63.19
2023-01-10T20:17:45.821Z,62.54
2023-01-10T20:27:46.193Z,61.50
2023-01-10T20:37:46.268Z,61.08
2023-01-10T20:47:46.414Z,61.60
2023-01-10T20:57:46.466Z,62.33
2023-01-10T21:07:46.781Z,60.67
2023-01-10T21:17:46.811Z,61.60
2023-01-10T21:27:47.157Z,62.74
2023-01-10T21:37:47.186Z,61.91
2023-01-10T21:47:48.501Z,60.53
2023-01-10T21:57:47.539Z,59.71
2023-01-10T22:07:47.799Z,60.53
2023-01-10T22:17:48.023Z,60.85
2023-01-10T22:27:48.379Z,60.12
2023-01-10T22:37:48.416Z,61.05
2023-01-10T22:47:48.739Z,62.19
2023-01-10T22:57:48.980Z,62.19
2023-01-10T23:07:49.083Z,62.48
2023-01-10T23:17:49.082Z,63.85
2023-01-10T23:27:49.339Z,62.48
2023-01-10T23:37:49.538Z,63.31
2023-01-10T23:47:49.823Z,63.72
2023-01-10T23:57:49.851Z,64.14
